sensor_id;sensor_type;location;lat;lon;timestamp;P1;durP1;ratioP1;P2;durP2;ratioP2
3704;SDS011;1868;48.918;9.438;2023-04-09T00:00:24;7.13;;;6.47;;
3704;SDS011;1868;48.918;9.438;2023-04-09T00:02:57;6.67;;;5.60;;
3704;SDS011;1868;48.918;9.438;2023-04-09T00:05:25;6.70;;;6.10;;
3704;SDS011;1868;48.918;9.438;2023-04-09T00:07:54;6.70;;;6.00;;
3704;SDS011;1868;48.918;9.438;2023-04-09T00:10:28;6.90;;;6.20;;
3704;SDS011;1868;48.918;9.438;2023-04-09T00:12:59;6.90;;;6.20;;
3704;SDS011;1868;48.918;9.438;2023-04-09T00:15:28;7.17;;;6.30;;
3704;SDS011;1868;48.918;9.438;2023-04-09T00:17:57;10.37;;;6.40;;
3704;SDS011;1868;48.918;9.438;2023-04-09T00:20:26;7.30;;;6.37;;
3704;SDS011;1868;48.918;9.438;2023-04-09T00:22:57;7.40;;;6.33;;
3704;SDS011;1868;48.918;9.438;2023-04-09T00:25:30;8.03;;;7.23;;
3704;SDS011;1868;48.918;9.438;2023-04-09T00:27:59;6.33;;;5.73;;
3704;SDS011;1868;48.918;9.438;2023-04-09T00:30:29;7.80;;;6.63;;
3704;SDS011;1868;48.918;9.438;2023-04-09T00:32:59;13.60;;;6.83;;
3704;SDS011;1868;48.918;9.438;2023-04-09T00:35:29;8.63;;;5.37;;
3704;SDS011;1868;48.918;9.438;2023-04-09T00:37:57;7.03;;;6.33;;
3704;SDS011;1868;48.918;9.438;2023-04-09T00:40:29;8.17;;;7.10;;
3704;SDS011;1868;48.918;9.438;2023-04-09T00:42:59;7.50;;;6.47;;
3704;SDS011;1868;48.918;9.438;2023-04-09T00:45:28;9.70;;;7.57;;
3704;SDS011;1868;48.918;9.438;2023-04-09T00:48:05;7.80;;;7.00;;
3704;SDS011;1868;48.918;9.438;2023-04-09T00:50:37;8.70;;;6.47;;
3704;SDS011;1868;48.918;9.438;2023-04-09T00:53:06;7.57;;;6.40;;
3704;SDS011;1868;48.918;9.438;2023-04-09T00:55:40;7.73;;;6.77;;
3704;SDS011;1868;48.918;9.438;2023-04-09T00:58:09;7.90;;;6.67;;
3704;SDS011;1868;48.918;9.438;2023-04-09T01:00:39;10.77;;;7.40;;
3704;SDS011;1868;48.918;9.438;2023-04-09T01:03:08;9.37;;;6.63;;
3704;SDS011;1868;48.918;9.438;2023-04-09T01:05:42;7.27;;;6.50;;
3704;SDS011;1868;48.918;9.438;2023-04-09T01:08:24;9.00;;;6.20;;
3704;SDS011;1868;48.918;9.438;2023-04-09T01:11:08;7.00;;;6.30;;
3704;SDS011;1868;48.918;9.438;2023-04-09T01:13:54;11.20;;;5.63;;
3704;SDS011;1868;48.918;9.438;2023-04-09T01:16:30;7.67;;;6.73;;
3704;SDS011;1868;48.918;9.438;2023-04-09T01:19:08;7.80;;;6.30;;
3704;SDS011;1868;48.918;9.438;2023-04-09T01:21:52;7.30;;;6.60;;
3704;SDS011;1868;48.918;9.438;2023-04-09T01:24:26;8.53;;;6.73;;
3704;SDS011;1868;48.918;9.438;2023-04-09T01:27:13;6.40;;;5.80;;
3704;SDS011;1868;48.918;9.438;2023-04-09T01:29:55;7.40;;;6.20;;
3704;SDS011;1868;48.918;9.438;2023-04-09T01:32:26;9.63;;;6.97;;
3704;SDS011;1868;48.918;9.438;2023-04-09T01:34:59;10.67;;;7.10;;
3704;SDS011;1868;48.918;9.438;2023-04-09T01:37:31;8.83;;;7.10;;
3704;SDS011;1868;48.918;9.438;2023-04-09T01:40:04;8.57;;;6.70;;
3704;SDS011;1868;48.918;9.438;2023-04-09T01:42:37;6.80;;;6.00;;
3704;SDS011;1868;48.918;9.438;2023-04-09T01:45:10;8.10;;;6.30;;
3704;SDS011;1868;48.918;9.438;2023-04-09T01:47:39;7.03;;;5.83;;
3704;SDS011;1868;48.918;9.438;2023-04-09T01:50:09;9.40;;;7.33;;
3704;SDS011;1868;48.918;9.438;2023-04-09T01:52:38;9.40;;;8.00;;
3704;SDS011;1868;48.918;9.438;2023-04-09T01:55:10;7.27;;;6.50;;
3704;SDS011;1868;48.918;9.438;2023-04-09T01:57:44;8.70;;;7.20;;
3704;SDS011;1868;48.918;9.438;2023-04-09T02:00:15;7.77;;;6.60;;
3704;SDS011;1868;48.918;9.438;2023-04-09T02:02:45;7.27;;;5.77;;
3704;SDS011;1868;48.918;9.438;2023-04-09T02:05:26;6.90;;;6.10;;
3704;SDS011;1868;48.918;9.438;2023-04-09T02:08:01;6.77;;;6.10;;
3704;SDS011;1868;48.918;9.438;2023-04-09T02:10:32;6.40;;;5.80;;
3704;SDS011;1868;48.918;9.438;2023-04-09T02:13:05;7.20;;;6.30;;
3704;SDS011;1868;48.918;9.438;2023-04-09T02:15:43;7.50;;;6.17;;
3704;SDS011;1868;48.918;9.438;2023-04-09T02:18:21;6.53;;;5.87;;
3704;SDS011;1868;48.918;9.438;2023-04-09T02:20:52;7.33;;;6.27;;
3704;SDS011;1868;48.918;9.438;2023-04-09T02:23:22;6.90;;;6.20;;
3704;SDS011;1868;48.918;9.438;2023-04-09T02:25:54;6.77;;;5.90;;
3704;SDS011;1868;48.918;9.438;2023-04-09T02:28:23;7.63;;;6.90;;
3704;SDS011;1868;48.918;9.438;2023-04-09T02:30:55;6.37;;;5.77;;
3704;SDS011;1868;48.918;9.438;2023-04-09T02:33:25;7.53;;;5.80;;
3704;SDS011;1868;48.918;9.438;2023-04-09T02:35:54;7.80;;;6.67;;
3704;SDS011;1868;48.918;9.438;2023-04-09T02:38:23;6.57;;;5.97;;
3704;SDS011;1868;48.918;9.438;2023-04-09T02:40:54;7.23;;;6.20;;
3704;SDS011;1868;48.918;9.438;2023-04-09T02:43:23;8.50;;;6.33;;
3704;SDS011;1868;48.918;9.438;2023-04-09T02:45:51;6.80;;;6.00;;
3704;SDS011;1868;48.918;9.438;2023-04-09T02:48:23;6.43;;;5.47;;
3704;SDS011;1868;48.918;9.438;2023-04-09T02:50:53;6.43;;;5.83;;
3704;SDS011;1868;48.918;9.438;2023-04-09T02:53:24;7.33;;;6.60;;
3704;SDS011;1868;48.918;9.438;2023-04-09T02:55:54;8.10;;;6.70;;
3704;SDS011;1868;48.918;9.438;2023-04-09T02:58:23;10.40;;;7.10;;
3704;SDS011;1868;48.918;9.438;2023-04-09T03:00:52;7.00;;;6.30;;
3704;SDS011;1868;48.918;9.438;2023-04-09T03:03:22;8.83;;;6.20;;
3704;SDS011;1868;48.918;9.438;2023-04-09T03:05:53;6.70;;;6.00;;
3704;SDS011;1868;48.918;9.438;2023-04-09T03:08:21;6.33;;;5.40;;
3704;SDS011;1868;48.918;9.438;2023-04-09T03:10:50;7.90;;;6.87;;
3704;SDS011;1868;48.918;9.438;2023-04-09T03:13:19;7.37;;;6.67;;
3704;SDS011;1868;48.918;9.438;2023-04-09T03:15:50;7.23;;;6.43;;
3704;SDS011;1868;48.918;9.438;2023-04-09T03:18:20;7.07;;;5.70;;
3704;SDS011;1868;48.918;9.438;2023-04-09T03:20:50;9.07;;;6.70;;
3704;SDS011;1868;48.918;9.438;2023-04-09T03:23:22;6.60;;;5.97;;
3704;SDS011;1868;48.918;9.438;2023-04-09T03:25:58;6.30;;;5.70;;
3704;SDS011;1868;48.918;9.438;2023-04-09T03:28:48;6.27;;;5.67;;
3704;SDS011;1868;48.918;9.438;2023-04-09T03:31:18;6.93;;;6.07;;
3704;SDS011;1868;48.918;9.438;2023-04-09T03:33:49;7.60;;;6.60;;
3704;SDS011;1868;48.918;9.438;2023-04-09T03:36:21;7.27;;;6.17;;
3704;SDS011;1868;48.918;9.438;2023-04-09T03:39:16;7.30;;;5.97;;
3704;SDS011;1868;48.918;9.438;2023-04-09T03:41:46;10.03;;;7.27;;
3704;SDS011;1868;48.918;9.438;2023-04-09T03:44:17;7.90;;;6.40;;
3704;SDS011;1868;48.918;9.438;2023-04-09T03:47:00;6.10;;;5.50;;
3704;SDS011;1868;48.918;9.438;2023-04-09T03:49:36;7.00;;;6.07;;
3704;SDS011;1868;48.918;9.438;2023-04-09T03:52:22;8.57;;;6.20;;
3704;SDS011;1868;48.918;9.438;2023-04-09T03:55:06;9.33;;;6.07;;
3704;SDS011;1868;48.918;9.438;2023-04-09T03:57:37;7.77;;;6.30;;
3704;SDS011;1868;48.918;9.438;2023-04-09T04:00:11;6.00;;;5.40;;
3704;SDS011;1868;48.918;9.438;2023-04-09T04:02:49;7.10;;;5.57;;
3704;SDS011;1868;48.918;9.438;2023-04-09T04:05:38;6.13;;;5.50;;
3704;SDS011;1868;48.918;9.438;2023-04-09T04:08:20;9.77;;;7.03;;
3704;SDS011;1868;48.918;9.438;2023-04-09T04:10:49;8.33;;;7.07;;
3704;SDS011;1868;48.918;9.438;2023-04-09T04:13:19;7.63;;;6.87;;
3704;SDS011;1868;48.918;9.438;2023-04-09T04:15:54;6.50;;;5.43;;
3704;SDS011;1868;48.918;9.438;2023-04-09T04:18:25;6.83;;;6.13;;
3704;SDS011;1868;48.918;9.438;2023-04-09T04:20:53;7.17;;;6.43;;
3704;SDS011;1868;48.918;9.438;2023-04-09T04:23:29;11.80;;;6.93;;
3704;SDS011;1868;48.918;9.438;2023-04-09T04:26:12;8.47;;;7.57;;
3704;SDS011;1868;48.918;9.438;2023-04-09T04:28:42;9.50;;;6.73;;
3704;SDS011;1868;48.918;9.438;2023-04-09T04:31:23;8.70;;;6.77;;
3704;SDS011;1868;48.918;9.438;2023-04-09T04:33:57;8.87;;;7.33;;
3704;SDS011;1868;48.918;9.438;2023-04-09T04:36:30;9.23;;;7.00;;
3704;SDS011;1868;48.918;9.438;2023-04-09T04:39:04;7.30;;;6.40;;
3704;SDS011;1868;48.918;9.438;2023-04-09T04:41:48;9.73;;;7.17;;
3704;SDS011;1868;48.918;9.438;2023-04-09T04:44:21;8.63;;;7.43;;
3704;SDS011;1868;48.918;9.438;2023-04-09T04:47:01;8.83;;;7.90;;
3704;SDS011;1868;48.918;9.438;2023-04-09T04:49:30;10.13;;;7.60;;
3704;SDS011;1868;48.918;9.438;2023-04-09T04:52:05;8.60;;;7.73;;
3704;SDS011;1868;48.918;9.438;2023-04-09T04:54:49;8.63;;;6.83;;
3704;SDS011;1868;48.918;9.438;2023-04-09T04:57:21;7.93;;;7.10;;
3704;SDS011;1868;48.918;9.438;2023-04-09T04:59:50;8.30;;;6.80;;
3704;SDS011;1868;48.918;9.438;2023-04-09T05:02:21;11.07;;;7.23;;
3704;SDS011;1868;48.918;9.438;2023-04-09T05:05:08;8.27;;;7.37;;
3704;SDS011;1868;48.918;9.438;2023-04-09T05:07:47;9.50;;;7.50;;
3704;SDS011;1868;48.918;9.438;2023-04-09T05:10:21;10.43;;;8.80;;
3704;SDS011;1868;48.918;9.438;2023-04-09T05:12:52;9.63;;;7.80;;
3704;SDS011;1868;48.918;9.438;2023-04-09T05:15:29;10.00;;;7.93;;
3704;SDS011;1868;48.918;9.438;2023-04-09T05:17:59;9.70;;;8.23;;
3704;SDS011;1868;48.918;9.438;2023-04-09T05:20:33;8.30;;;7.50;;
3704;SDS011;1868;48.918;9.438;2023-04-09T05:23:08;9.37;;;7.20;;
3704;SDS011;1868;48.918;9.438;2023-04-09T05:25:48;9.40;;;7.37;;
3704;SDS011;1868;48.918;9.438;2023-04-09T05:28:35;8.60;;;7.70;;
3704;SDS011;1868;48.918;9.438;2023-04-09T05:31:12;9.83;;;7.70;;
3704;SDS011;1868;48.918;9.438;2023-04-09T05:33:52;10.93;;;9.03;;
3704;SDS011;1868;48.918;9.438;2023-04-09T05:36:31;10.87;;;7.50;;
3704;SDS011;1868;48.918;9.438;2023-04-09T05:39:00;9.83;;;8.27;;
3704;SDS011;1868;48.918;9.438;2023-04-09T05:41:31;8.73;;;7.27;;
3704;SDS011;1868;48.918;9.438;2023-04-09T05:44:21;10.90;;;8.97;;
3704;SDS011;1868;48.918;9.438;2023-04-09T05:46:54;10.47;;;9.17;;
3704;SDS011;1868;48.918;9.438;2023-04-09T05:49:29;15.63;;;11.97;;
3704;SDS011;1868;48.918;9.438;2023-04-09T05:52:01;10.53;;;9.23;;
3704;SDS011;1868;48.918;9.438;2023-04-09T05:54:34;14.23;;;11.00;;
3704;SDS011;1868;48.918;9.438;2023-04-09T05:57:12;17.13;;;11.97;;
3704;SDS011;1868;48.918;9.438;2023-04-09T05:59:49;14.10;;;11.50;;
3704;SDS011;1868;48.918;9.438;2023-04-09T06:02:19;13.17;;;10.23;;
3704;SDS011;1868;48.918;9.438;2023-04-09T06:04:48;13.87;;;9.43;;
3704;SDS011;1868;48.918;9.438;2023-04-09T06:07:20;10.87;;;9.47;;
3704;SDS011;1868;48.918;9.438;2023-04-09T06:09:50;12.63;;;9.50;;
3704;SDS011;1868;48.918;9.438;2023-04-09T06:12:20;13.87;;;10.43;;
3704;SDS011;1868;48.918;9.438;2023-04-09T06:14:49;13.20;;;9.83;;
3704;SDS011;1868;48.918;9.438;2023-04-09T06:17:19;15.07;;;11.07;;
3704;SDS011;1868;48.918;9.438;2023-04-09T06:19:47;15.13;;;10.20;;
3704;SDS011;1868;48.918;9.438;2023-04-09T06:22:17;13.73;;;11.33;;
3704;SDS011;1868;48.918;9.438;2023-04-09T06:24:45;11.90;;;10.07;;
3704;SDS011;1868;48.918;9.438;2023-04-09T06:27:15;9.73;;;8.47;;
3704;SDS011;1868;48.918;9.438;2023-04-09T06:29:46;9.97;;;8.83;;
3704;SDS011;1868;48.918;9.438;2023-04-09T06:32:15;11.30;;;9.10;;
3704;SDS011;1868;48.918;9.438;2023-04-09T06:34:45;12.20;;;8.50;;
3704;SDS011;1868;48.918;9.438;2023-04-09T06:37:13;11.80;;;10.10;;
3704;SDS011;1868;48.918;9.438;2023-04-09T06:39:43;11.13;;;8.90;;
3704;SDS011;1868;48.918;9.438;2023-04-09T06:42:19;10.93;;;9.40;;
3704;SDS011;1868;48.918;9.438;2023-04-09T06:44:57;11.83;;;9.37;;
3704;SDS011;1868;48.918;9.438;2023-04-09T06:47:26;10.43;;;9.20;;
3704;SDS011;1868;48.918;9.438;2023-04-09T06:49:59;15.97;;;12.30;;
3704;SDS011;1868;48.918;9.438;2023-04-09T06:52:28;14.63;;;10.80;;
3704;SDS011;1868;48.918;9.438;2023-04-09T06:54:57;11.30;;;10.00;;
3704;SDS011;1868;48.918;9.438;2023-04-09T06:57:26;12.00;;;9.80;;
3704;SDS011;1868;48.918;9.438;2023-04-09T06:59:58;12.87;;;10.50;;
3704;SDS011;1868;48.918;9.438;2023-04-09T07:02:27;10.57;;;9.47;;
3704;SDS011;1868;48.918;9.438;2023-04-09T07:04:57;11.80;;;9.00;;
3704;SDS011;1868;48.918;9.438;2023-04-09T07:07:27;10.00;;;9.00;;
3704;SDS011;1868;48.918;9.438;2023-04-09T07:09:56;10.13;;;8.97;;
3704;SDS011;1868;48.918;9.438;2023-04-09T07:12:27;9.90;;;8.93;;
3704;SDS011;1868;48.918;9.438;2023-04-09T07:14:59;8.80;;;8.00;;
3704;SDS011;1868;48.918;9.438;2023-04-09T07:17:30;10.00;;;9.00;;
3704;SDS011;1868;48.918;9.438;2023-04-09T07:19:59;7.00;;;6.40;;
3704;SDS011;1868;48.918;9.438;2023-04-09T07:22:28;8.13;;;7.37;;
3704;SDS011;1868;48.918;9.438;2023-04-09T07:24:58;6.73;;;6.13;;
3704;SDS011;1868;48.918;9.438;2023-04-09T07:27:27;7.00;;;6.30;;
3704;SDS011;1868;48.918;9.438;2023-04-09T07:29:56;7.03;;;6.23;;
3704;SDS011;1868;48.918;9.438;2023-04-09T07:32:26;7.00;;;6.40;;
3704;SDS011;1868;48.918;9.438;2023-04-09T07:34:58;6.57;;;6.00;;
3704;SDS011;1868;48.918;9.438;2023-04-09T07:37:27;8.10;;;7.30;;
3704;SDS011;1868;48.918;9.438;2023-04-09T07:39:56;7.30;;;6.70;;
3704;SDS011;1868;48.918;9.438;2023-04-09T07:42:24;8.30;;;7.50;;
3704;SDS011;1868;48.918;9.438;2023-04-09T07:44:53;7.10;;;6.50;;
3704;SDS011;1868;48.918;9.438;2023-04-09T07:47:24;9.10;;;6.83;;
3704;SDS011;1868;48.918;9.438;2023-04-09T07:49:54;8.93;;;8.03;;
3704;SDS011;1868;48.918;9.438;2023-04-09T07:52:22;7.43;;;6.73;;
3704;SDS011;1868;48.918;9.438;2023-04-09T07:54:53;8.93;;;8.13;;
3704;SDS011;1868;48.918;9.438;2023-04-09T07:57:23;7.30;;;6.70;;
3704;SDS011;1868;48.918;9.438;2023-04-09T07:59:51;9.43;;;8.53;;
3704;SDS011;1868;48.918;9.438;2023-04-09T08:02:20;8.00;;;7.20;;
3704;SDS011;1868;48.918;9.438;2023-04-09T08:04:52;7.83;;;7.13;;
3704;SDS011;1868;48.918;9.438;2023-04-09T08:07:22;7.10;;;6.50;;
3704;SDS011;1868;48.918;9.438;2023-04-09T08:09:51;8.27;;;7.67;;
3704;SDS011;1868;48.918;9.438;2023-04-09T08:12:19;7.70;;;7.10;;
3704;SDS011;1868;48.918;9.438;2023-04-09T08:14:48;6.87;;;6.27;;
3704;SDS011;1868;48.918;9.438;2023-04-09T08:17:18;7.03;;;6.47;;
3704;SDS011;1868;48.918;9.438;2023-04-09T08:19:48;15.27;;;13.77;;
3704;SDS011;1868;48.918;9.438;2023-04-09T08:22:16;7.90;;;7.20;;
3704;SDS011;1868;48.918;9.438;2023-04-09T08:24:49;7.77;;;7.00;;
3704;SDS011;1868;48.918;9.438;2023-04-09T08:27:18;5.90;;;5.50;;
3704;SDS011;1868;48.918;9.438;2023-04-09T08:29:50;6.73;;;6.23;;
3704;SDS011;1868;48.918;9.438;2023-04-09T08:32:18;6.20;;;5.70;;
3704;SDS011;1868;48.918;9.438;2023-04-09T08:34:49;7.40;;;6.80;;
3704;SDS011;1868;48.918;9.438;2023-04-09T08:37:17;7.30;;;6.70;;
3704;SDS011;1868;48.918;9.438;2023-04-09T08:39:46;6.97;;;6.47;;
3704;SDS011;1868;48.918;9.438;2023-04-09T08:42:15;5.80;;;5.30;;
3704;SDS011;1868;48.918;9.438;2023-04-09T08:44:44;5.30;;;4.90;;
3704;SDS011;1868;48.918;9.438;2023-04-09T08:47:13;6.33;;;5.83;;
3704;SDS011;1868;48.918;9.438;2023-04-09T08:49:44;7.03;;;6.43;;
3704;SDS011;1868;48.918;9.438;2023-04-09T08:52:15;5.20;;;4.80;;
3704;SDS011;1868;48.918;9.438;2023-04-09T08:54:49;5.97;;;5.57;;
3704;SDS011;1868;48.918;9.438;2023-04-09T08:57:19;6.53;;;5.93;;
3704;SDS011;1868;48.918;9.438;2023-04-09T08:59:47;6.17;;;5.67;;
3704;SDS011;1868;48.918;9.438;2023-04-09T09:02:18;6.77;;;6.27;;
3704;SDS011;1868;48.918;9.438;2023-04-09T09:04:47;5.77;;;5.37;;
3704;SDS011;1868;48.918;9.438;2023-04-09T09:07:21;4.50;;;4.30;;
3704;SDS011;1868;48.918;9.438;2023-04-09T09:09:50;5.43;;;5.07;;
3704;SDS011;1868;48.918;9.438;2023-04-09T09:12:30;6.03;;;5.57;;
3704;SDS011;1868;48.918;9.438;2023-04-09T09:15:01;5.30;;;5.00;;
3704;SDS011;1868;48.918;9.438;2023-04-09T09:17:30;29.27;;;25.70;;
3704;SDS011;1868;48.918;9.438;2023-04-09T09:19:59;50.17;;;44.73;;
3704;SDS011;1868;48.918;9.438;2023-04-09T09:22:49;4.37;;;4.07;;
3704;SDS011;1868;48.918;9.438;2023-04-09T09:25:20;4.20;;;4.00;;
3704;SDS011;1868;48.918;9.438;2023-04-09T09:27:52;4.30;;;4.10;;
3704;SDS011;1868;48.918;9.438;2023-04-09T09:30:22;4.43;;;4.17;;
3704;SDS011;1868;48.918;9.438;2023-04-09T09:32:52;5.77;;;5.37;;
3704;SDS011;1868;48.918;9.438;2023-04-09T09:35:47;4.30;;;4.03;;
3704;SDS011;1868;48.918;9.438;2023-04-09T09:38:19;4.90;;;4.60;;
3704;SDS011;1868;48.918;9.438;2023-04-09T09:40:48;3.70;;;3.50;;
3704;SDS011;1868;48.918;9.438;2023-04-09T09:43:19;5.03;;;4.63;;
3704;SDS011;1868;48.918;9.438;2023-04-09T09:45:49;5.23;;;3.97;;
3704;SDS011;1868;48.918;9.438;2023-04-09T09:48:19;4.40;;;4.20;;
3704;SDS011;1868;48.918;9.438;2023-04-09T09:50:53;3.70;;;3.50;;
3704;SDS011;1868;48.918;9.438;2023-04-09T09:53:23;3.30;;;3.10;;
3704;SDS011;1868;48.918;9.438;2023-04-09T09:55:54;3.70;;;3.50;;
3704;SDS011;1868;48.918;9.438;2023-04-09T09:58:30;5.07;;;4.73;;
3704;SDS011;1868;48.918;9.438;2023-04-09T10:01:06;3.43;;;3.23;;
3704;SDS011;1868;48.918;9.438;2023-04-09T10:03:40;2.50;;;2.40;;
3704;SDS011;1868;48.918;9.438;2023-04-09T10:06:13;3.30;;;3.10;;
3704;SDS011;1868;48.918;9.438;2023-04-09T10:08:45;3.27;;;3.07;;
3704;SDS011;1868;48.918;9.438;2023-04-09T10:11:18;3.20;;;3.00;;
3704;SDS011;1868;48.918;9.438;2023-04-09T10:13:52;2.90;;;2.70;;
3704;SDS011;1868;48.918;9.438;2023-04-09T10:16:25;3.20;;;3.00;;
3704;SDS011;1868;48.918;9.438;2023-04-09T10:18:57;3.70;;;3.50;;
3704;SDS011;1868;48.918;9.438;2023-04-09T10:21:31;4.30;;;4.10;;
3704;SDS011;1868;48.918;9.438;2023-04-09T10:24:10;4.50;;;4.20;;
3704;SDS011;1868;48.918;9.438;2023-04-09T10:26:42;3.57;;;3.37;;
3704;SDS011;1868;48.918;9.438;2023-04-09T10:29:12;3.70;;;3.50;;
3704;SDS011;1868;48.918;9.438;2023-04-09T10:31:46;4.33;;;4.07;;
3704;SDS011;1868;48.918;9.438;2023-04-09T10:34:20;3.60;;;3.40;;
3704;SDS011;1868;48.918;9.438;2023-04-09T10:36:51;3.20;;;3.10;;
3704;SDS011;1868;48.918;9.438;2023-04-09T10:39:26;3.80;;;3.60;;
3704;SDS011;1868;48.918;9.438;2023-04-09T10:41:59;4.17;;;3.90;;
3704;SDS011;1868;48.918;9.438;2023-04-09T10:44:35;3.70;;;3.50;;
3704;SDS011;1868;48.918;9.438;2023-04-09T10:47:08;3.67;;;3.47;;
3704;SDS011;1868;48.918;9.438;2023-04-09T10:49:39;3.47;;;3.27;;
3704;SDS011;1868;48.918;9.438;2023-04-09T10:52:10;5.30;;;3.40;;
3704;SDS011;1868;48.918;9.438;2023-04-09T10:54:44;4.10;;;3.87;;
3704;SDS011;1868;48.918;9.438;2023-04-09T10:57:15;4.63;;;3.60;;
3704;SDS011;1868;48.918;9.438;2023-04-09T10:59:48;4.03;;;3.73;;
3704;SDS011;1868;48.918;9.438;2023-04-09T11:05:47;3.70;;;3.50;;
3704;SDS011;1868;48.918;9.438;2023-04-09T11:08:19;3.47;;;3.27;;
3704;SDS011;1868;48.918;9.438;2023-04-09T11:10:52;4.43;;;3.60;;
3704;SDS011;1868;48.918;9.438;2023-04-09T11:13:24;3.60;;;3.40;;
3704;SDS011;1868;48.918;9.438;2023-04-09T11:15:55;3.70;;;3.50;;
3704;SDS011;1868;48.918;9.438;2023-04-09T11:18:28;4.20;;;3.90;;
3704;SDS011;1868;48.918;9.438;2023-04-09T11:21:00;4.00;;;3.70;;
3704;SDS011;1868;48.918;9.438;2023-04-09T11:23:30;3.93;;;3.63;;
3704;SDS011;1868;48.918;9.438;2023-04-09T11:26:07;4.33;;;4.03;;
3704;SDS011;1868;48.918;9.438;2023-04-09T11:28:42;4.20;;;3.80;;
3704;SDS011;1868;48.918;9.438;2023-04-09T11:31:12;4.93;;;4.47;;
3704;SDS011;1868;48.918;9.438;2023-04-09T11:33:44;4.40;;;4.10;;
3704;SDS011;1868;48.918;9.438;2023-04-09T11:36:15;4.40;;;4.10;;
3704;SDS011;1868;48.918;9.438;2023-04-09T11:38:46;3.70;;;3.43;;
3704;SDS011;1868;48.918;9.438;2023-04-09T11:41:17;3.27;;;3.07;;
3704;SDS011;1868;48.918;9.438;2023-04-09T11:43:45;3.17;;;2.97;;
3704;SDS011;1868;48.918;9.438;2023-04-09T11:46:19;4.17;;;3.80;;
3704;SDS011;1868;48.918;9.438;2023-04-09T11:48:51;3.17;;;2.97;;
3704;SDS011;1868;48.918;9.438;2023-04-09T11:51:20;3.20;;;3.00;;
3704;SDS011;1868;48.918;9.438;2023-04-09T11:53:52;3.00;;;2.80;;
3704;SDS011;1868;48.918;9.438;2023-04-09T11:56:23;3.03;;;2.83;;
3704;SDS011;1868;48.918;9.438;2023-04-09T11:58:52;7.80;;;3.07;;
3704;SDS011;1868;48.918;9.438;2023-04-09T12:01:22;3.83;;;3.17;;
3704;SDS011;1868;48.918;9.438;2023-04-09T12:03:51;3.40;;;3.20;;
3704;SDS011;1868;48.918;9.438;2023-04-09T12:06:22;3.43;;;3.20;;
3704;SDS011;1868;48.918;9.438;2023-04-09T12:08:51;3.40;;;3.20;;
3704;SDS011;1868;48.918;9.438;2023-04-09T12:11:26;3.33;;;3.10;;
3704;SDS011;1868;48.918;9.438;2023-04-09T12:14:00;3.60;;;3.40;;
3704;SDS011;1868;48.918;9.438;2023-04-09T12:16:29;3.60;;;3.37;;
3704;SDS011;1868;48.918;9.438;2023-04-09T12:19:00;2.93;;;2.73;;
3704;SDS011;1868;48.918;9.438;2023-04-09T12:21:46;3.70;;;3.40;;
3704;SDS011;1868;48.918;9.438;2023-04-09T12:24:15;2.77;;;2.57;;
3704;SDS011;1868;48.918;9.438;2023-04-09T12:26:48;3.20;;;3.03;;
3704;SDS011;1868;48.918;9.438;2023-04-09T12:29:19;3.47;;;3.27;;
3704;SDS011;1868;48.918;9.438;2023-04-09T12:31:54;8.50;;;7.80;;
3704;SDS011;1868;48.918;9.438;2023-04-09T12:34:23;4.60;;;4.30;;
3704;SDS011;1868;48.918;9.438;2023-04-09T12:36:53;2.40;;;2.30;;
3704;SDS011;1868;48.918;9.438;2023-04-09T12:39:22;2.93;;;2.73;;
3704;SDS011;1868;48.918;9.438;2023-04-09T12:41:52;3.37;;;3.17;;
3704;SDS011;1868;48.918;9.438;2023-04-09T12:44:21;3.37;;;2.73;;
3704;SDS011;1868;48.918;9.438;2023-04-09T12:46:51;3.23;;;3.03;;
3704;SDS011;1868;48.918;9.438;2023-04-09T12:49:23;3.27;;;3.07;;
3704;SDS011;1868;48.918;9.438;2023-04-09T12:51:51;2.63;;;2.47;;
3704;SDS011;1868;48.918;9.438;2023-04-09T12:54:21;3.00;;;2.70;;
3704;SDS011;1868;48.918;9.438;2023-04-09T12:56:49;4.00;;;3.60;;
3704;SDS011;1868;48.918;9.438;2023-04-09T12:59:21;3.50;;;3.30;;
3704;SDS011;1868;48.918;9.438;2023-04-09T13:01:54;4.23;;;3.63;;
3704;SDS011;1868;48.918;9.438;2023-04-09T13:04:23;3.77;;;3.40;;
3704;SDS011;1868;48.918;9.438;2023-04-09T13:06:54;4.33;;;4.00;;
3704;SDS011;1868;48.918;9.438;2023-04-09T13:09:30;4.20;;;3.80;;
3704;SDS011;1868;48.918;9.438;2023-04-09T13:12:00;4.10;;;3.80;;
3704;SDS011;1868;48.918;9.438;2023-04-09T13:14:31;4.27;;;3.30;;
3704;SDS011;1868;48.918;9.438;2023-04-09T13:16:59;4.10;;;3.80;;
3704;SDS011;1868;48.918;9.438;2023-04-09T13:19:28;4.23;;;3.93;;
3704;SDS011;1868;48.918;9.438;2023-04-09T13:21:56;3.90;;;3.60;;
3704;SDS011;1868;48.918;9.438;2023-04-09T13:24:26;3.90;;;3.60;;
3704;SDS011;1868;48.918;9.438;2023-04-09T13:26:55;3.80;;;3.50;;
3704;SDS011;1868;48.918;9.438;2023-04-09T13:29:28;4.63;;;4.13;;
3704;SDS011;1868;48.918;9.438;2023-04-09T13:31:58;3.73;;;3.53;;
3704;SDS011;1868;48.918;9.438;2023-04-09T13:34:33;4.97;;;3.90;;
3704;SDS011;1868;48.918;9.438;2023-04-09T13:37:03;4.90;;;4.47;;
3704;SDS011;1868;48.918;9.438;2023-04-09T13:39:34;4.13;;;3.83;;
3704;SDS011;1868;48.918;9.438;2023-04-09T13:42:03;3.20;;;3.00;;
3704;SDS011;1868;48.918;9.438;2023-04-09T13:44:39;4.10;;;3.80;;
3704;SDS011;1868;48.918;9.438;2023-04-09T13:47:13;4.13;;;3.83;;
3704;SDS011;1868;48.918;9.438;2023-04-09T13:49:44;4.00;;;3.70;;
3704;SDS011;1868;48.918;9.438;2023-04-09T13:52:16;4.27;;;3.87;;
3704;SDS011;1868;48.918;9.438;2023-04-09T13:54:45;5.00;;;4.60;;
3704;SDS011;1868;48.918;9.438;2023-04-09T13:57:15;4.93;;;4.47;;
3704;SDS011;1868;48.918;9.438;2023-04-09T13:59:44;4.60;;;4.20;;
3704;SDS011;1868;48.918;9.438;2023-04-09T14:02:15;4.40;;;4.00;;
3704;SDS011;1868;48.918;9.438;2023-04-09T14:04:45;5.60;;;5.20;;
3704;SDS011;1868;48.918;9.438;2023-04-09T14:07:14;5.23;;;4.83;;
3704;SDS011;1868;48.918;9.438;2023-04-09T14:09:43;4.70;;;4.30;;
3704;SDS011;1868;48.918;9.438;2023-04-09T14:12:16;5.17;;;4.77;;
3704;SDS011;1868;48.918;9.438;2023-04-09T14:14:53;5.27;;;4.77;;
3704;SDS011;1868;48.918;9.438;2023-04-09T14:17:24;7.30;;;4.17;;
3704;SDS011;1868;48.918;9.438;2023-04-09T14:19:53;5.00;;;4.60;;
3704;SDS011;1868;48.918;9.438;2023-04-09T14:22:25;4.87;;;4.43;;
3704;SDS011;1868;48.918;9.438;2023-04-09T14:24:56;4.90;;;4.50;;
3704;SDS011;1868;48.918;9.438;2023-04-09T14:27:26;4.93;;;4.43;;
3704;SDS011;1868;48.918;9.438;2023-04-09T14:29:55;4.47;;;3.80;;
3704;SDS011;1868;48.918;9.438;2023-04-09T14:32:25;4.00;;;3.70;;
3704;SDS011;1868;48.918;9.438;2023-04-09T14:34:54;4.27;;;3.97;;
3704;SDS011;1868;48.918;9.438;2023-04-09T14:37:23;3.63;;;3.33;;
3704;SDS011;1868;48.918;9.438;2023-04-09T14:40:04;3.53;;;3.23;;
3704;SDS011;1868;48.918;9.438;2023-04-09T14:42:35;3.30;;;3.00;;
3704;SDS011;1868;48.918;9.438;2023-04-09T14:45:05;4.00;;;3.70;;
3704;SDS011;1868;48.918;9.438;2023-04-09T14:47:46;4.57;;;4.17;;
3704;SDS011;1868;48.918;9.438;2023-04-09T14:50:15;4.97;;;4.57;;
3704;SDS011;1868;48.918;9.438;2023-04-09T14:52:45;3.67;;;3.47;;
3704;SDS011;1868;48.918;9.438;2023-04-09T14:55:15;4.33;;;4.03;;
3704;SDS011;1868;48.918;9.438;2023-04-09T14:57:46;4.40;;;4.00;;
3704;SDS011;1868;48.918;9.438;2023-04-09T15:00:16;7.07;;;5.43;;
3704;SDS011;1868;48.918;9.438;2023-04-09T15:02:46;4.97;;;4.10;;
3704;SDS011;1868;48.918;9.438;2023-04-09T15:05:16;20.23;;;16.13;;
3704;SDS011;1868;48.918;9.438;2023-04-09T15:07:56;4.73;;;4.33;;
3704;SDS011;1868;48.918;9.438;2023-04-09T15:10:27;4.70;;;4.30;;
3704;SDS011;1868;48.918;9.438;2023-04-09T15:12:57;3.67;;;3.37;;
3704;SDS011;1868;48.918;9.438;2023-04-09T15:15:46;4.57;;;4.17;;
3704;SDS011;1868;48.918;9.438;2023-04-09T15:18:20;4.20;;;3.90;;
3704;SDS011;1868;48.918;9.438;2023-04-09T15:20:49;4.87;;;4.47;;
3704;SDS011;1868;48.918;9.438;2023-04-09T15:23:18;4.23;;;3.90;;
3704;SDS011;1868;48.918;9.438;2023-04-09T15:25:47;3.93;;;3.60;;
3704;SDS011;1868;48.918;9.438;2023-04-09T15:28:20;4.40;;;4.00;;
3704;SDS011;1868;48.918;9.438;2023-04-09T15:30:48;4.10;;;3.70;;
3704;SDS011;1868;48.918;9.438;2023-04-09T15:33:20;4.30;;;4.00;;
3704;SDS011;1868;48.918;9.438;2023-04-09T15:35:48;4.50;;;4.10;;
3704;SDS011;1868;48.918;9.438;2023-04-09T15:38:19;4.43;;;4.10;;
3704;SDS011;1868;48.918;9.438;2023-04-09T15:40:50;3.17;;;2.93;;
3704;SDS011;1868;48.918;9.438;2023-04-09T15:43:19;4.13;;;3.83;;
3704;SDS011;1868;48.918;9.438;2023-04-09T15:45:49;3.87;;;3.57;;